sensor_id;sensor_type;location;lat;lon;timestamp;temperature;humidity
5978;DHT22;3015;51.390;12.256;2022-11-28T00:00:41;1.90;78.00
5978;DHT22;3015;51.390;12.256;2022-11-28T00:03:06;1.90;99.90
5978;DHT22;3015;51.390;12.256;2022-11-28T00:05:34;1.80;99.90
5978;DHT22;3015;51.390;12.256;2022-11-28T00:08:00;1.80;99.90
5978;DHT22;3015;51.390;12.256;2022-11-28T00:10:26;1.70;99.90
5978;DHT22;3015;51.390;12.256;2022-11-28T00:12:51;1.60;99.90
5978;DHT22;3015;51.390;12.256;2022-11-28T00:15:17;1.60;99.90
5978;DHT22;3015;51.390;12.256;2022-11-28T00:17:43;1.60;99.90
5978;DHT22;3015;51.390;12.256;2022-11-28T00:20:09;1.50;99.90
5978;DHT22;3015;51.390;12.256;2022-11-28T00:22:35;1.50;1.00
5978;DHT22;3015;51.390;12.256;2022-11-28T00:25:00;1.50;15.90
5978;DHT22;3015;51.390;12.256;2022-11-28T00:27:26;1.40;1.00
5978;DHT22;3015;51.390;12.256;2022-11-28T00:29:51;1.40;1.00
5978;DHT22;3015;51.390;12.256;2022-11-28T00:32:17;1.40;1.00
5978;DHT22;3015;51.390;12.256;2022-11-28T00:34:43;1.40;1.00
5978;DHT22;3015;51.390;12.256;2022-11-28T00:37:08;1.40;1.00
5978;DHT22;3015;51.390;12.256;2022-11-28T00:39:34;1.40;1.00
5978;DHT22;3015;51.390;12.256;2022-11-28T00:41:59;1.30;1.00
5978;DHT22;3015;51.390;12.256;2022-11-28T00:44:25;1.30;3.30
5978;DHT22;3015;51.390;12.256;2022-11-28T00:46:51;1.40;99.90
5978;DHT22;3015;51.390;12.256;2022-11-28T00:49:16;1.50;22.60
5978;DHT22;3015;51.390;12.256;2022-11-28T00:51:42;1.50;99.90
5978;DHT22;3015;51.390;12.256;2022-11-28T00:54:07;1.40;99.30
5978;DHT22;3015;51.390;12.256;2022-11-28T00:56:38;1.40;1.00
5978;DHT22;3015;51.390;12.256;2022-11-28T00:59:04;1.40;1.00
5978;DHT22;3015;51.390;12.256;2022-11-28T01:01:32;1.40;1.00
5978;DHT22;3015;51.390;12.256;2022-11-28T01:04:00;1.40;58.70
5978;DHT22;3015;51.390;12.256;2022-11-28T01:06:55;1.40;99.90
5978;DHT22;3015;51.390;12.256;2022-11-28T01:09:22;1.40;99.90
5978;DHT22;3015;51.390;12.256;2022-11-28T01:11:49;1.40;99.90
5978;DHT22;3015;51.390;12.256;2022-11-28T01:14:17;1.40;1.00
5978;DHT22;3015;51.390;12.256;2022-11-28T01:16:42;1.40;99.90
5978;DHT22;3015;51.390;12.256;2022-11-28T01:19:08;1.50;99.90
5978;DHT22;3015;51.390;12.256;2022-11-28T01:21:34;1.50;99.90
5978;DHT22;3015;51.390;12.256;2022-11-28T01:24:00;1.40;95.60
5978;DHT22;3015;51.390;12.256;2022-11-28T01:26:27;1.40;99.90
5978;DHT22;3015;51.390;12.256;2022-11-28T01:28:54;1.50;99.90
5978;DHT22;3015;51.390;12.256;2022-11-28T01:31:22;1.60;99.90
5978;DHT22;3015;51.390;12.256;2022-11-28T01:33:49;1.80;1.00
5978;DHT22;3015;51.390;12.256;2022-11-28T01:36:16;1.90;1.00
5978;DHT22;3015;51.390;12.256;2022-11-28T01:38:42;2.00;95.40
5978;DHT22;3015;51.390;12.256;2022-11-28T01:41:08;2.00;1.00
5978;DHT22;3015;51.390;12.256;2022-11-28T01:43:35;2.00;1.00
5978;DHT22;3015;51.390;12.256;2022-11-28T01:46:02;2.10;1.00
5978;DHT22;3015;51.390;12.256;2022-11-28T01:48:33;2.10;1.00
5978;DHT22;3015;51.390;12.256;2022-11-28T01:51:05;2.20;1.00
5978;DHT22;3015;51.390;12.256;2022-11-28T01:53:33;2.20;99.90
5978;DHT22;3015;51.390;12.256;2022-11-28T01:56:10;2.30;1.00
5978;DHT22;3015;51.390;12.256;2022-11-28T01:58:39;2.50;1.00
5978;DHT22;3015;51.390;12.256;2022-11-28T02:01:06;2.50;99.90
5978;DHT22;3015;51.390;12.256;2022-11-28T02:03:51;2.60;99.90
5978;DHT22;3015;51.390;12.256;2022-11-28T02:06:21;2.60;99.90
5978;DHT22;3015;51.390;12.256;2022-11-28T02:08:54;2.60;99.90
5978;DHT22;3015;51.390;12.256;2022-11-28T02:11:39;2.60;1.00
5978;DHT22;3015;51.390;12.256;2022-11-28T02:17:24;2.60;1.00
5978;DHT22;3015;51.390;12.256;2022-11-28T02:26:13;2.60;1.00
5978;DHT22;3015;51.390;12.256;2022-11-28T02:45:49;2.50;99.90
5978;DHT22;3015;51.390;12.256;2022-11-28T02:52:28;2.70;99.90
5978;DHT22;3015;51.390;12.256;2022-11-28T02:54:28;2.80;99.90
5978;DHT22;3015;51.390;12.256;2022-11-28T02:56:56;2.90;99.90
5978;DHT22;3015;51.390;12.256;2022-11-28T03:02:03;3.00;99.90
5978;DHT22;3015;51.390;12.256;2022-11-28T03:12:35;3.30;99.90
5978;DHT22;3015;51.390;12.256;2022-11-28T03:15:06;3.30;99.90
5978;DHT22;3015;51.390;12.256;2022-11-28T03:17:58;3.40;1.00
5978;DHT22;3015;51.390;12.256;2022-11-28T03:21:00;3.40;1.00
5978;DHT22;3015;51.390;12.256;2022-11-28T03:23:51;3.50;1.00
5978;DHT22;3015;51.390;12.256;2022-11-28T03:26:22;3.50;1.00
5978;DHT22;3015;51.390;12.256;2022-11-28T03:31:29;3.40;99.90
5978;DHT22;3015;51.390;12.256;2022-11-28T03:33:58;3.40;1.00
5978;DHT22;3015;51.390;12.256;2022-11-28T03:36:30;3.50;99.90
5978;DHT22;3015;51.390;12.256;2022-11-28T03:39:17;3.40;99.90
5978;DHT22;3015;51.390;12.256;2022-11-28T03:41:53;3.50;99.90
5978;DHT22;3015;51.390;12.256;2022-11-28T03:44:29;3.50;99.90
5978;DHT22;3015;51.390;12.256;2022-11-28T03:46:58;3.60;99.90
5978;DHT22;3015;51.390;12.256;2022-11-28T03:49:29;3.50;99.90
5978;DHT22;3015;51.390;12.256;2022-11-28T03:51:57;3.50;99.90
5978;DHT22;3015;51.390;12.256;2022-11-28T03:54:52;3.50;1.00
5978;DHT22;3015;51.390;12.256;2022-11-28T03:57:32;3.50;99.90
5978;DHT22;3015;51.390;12.256;2022-11-28T04:00:03;3.50;99.90
5978;DHT22;3015;51.390;12.256;2022-11-28T04:02:35;3.60;99.90
5978;DHT22;3015;51.390;12.256;2022-11-28T04:10:42;3.60;1.00
5978;DHT22;3015;51.390;12.256;2022-11-28T04:15:55;3.70;1.00
5978;DHT22;3015;51.390;12.256;2022-11-28T04:23:41;3.70;1.00
5978;DHT22;3015;51.390;12.256;2022-11-28T04:26:13;3.60;1.00
5978;DHT22;3015;51.390;12.256;2022-11-28T04:28:44;3.70;1.00
5978;DHT22;3015;51.390;12.256;2022-11-28T04:31:11;3.70;99.90
5978;DHT22;3015;51.390;12.256;2022-11-28T04:33:41;3.70;99.90
5978;DHT22;3015;51.390;12.256;2022-11-28T04:36:09;3.80;99.90
5978;DHT22;3015;51.390;12.256;2022-11-28T04:38:37;3.80;1.00
5978;DHT22;3015;51.390;12.256;2022-11-28T04:41:17;3.80;17.90
5978;DHT22;3015;51.390;12.256;2022-11-28T04:43:51;3.90;1.00
5978;DHT22;3015;51.390;12.256;2022-11-28T04:46:26;3.90;1.00
5978;DHT22;3015;51.390;12.256;2022-11-28T04:48:53;3.90;1.00
5978;DHT22;3015;51.390;12.256;2022-11-28T04:56:46;4.00;1.00
5978;DHT22;3015;51.390;12.256;2022-11-28T04:59:15;3.90;1.00
5978;DHT22;3015;51.390;12.256;2022-11-28T05:01:43;3.90;1.00
5978;DHT22;3015;51.390;12.256;2022-11-28T05:04:09;4.00;1.00
5978;DHT22;3015;51.390;12.256;2022-11-28T05:06:35;4.00;1.00
5978;DHT22;3015;51.390;12.256;2022-11-28T05:09:02;4.00;1.00
5978;DHT22;3015;51.390;12.256;2022-11-28T05:11:29;4.00;1.00
5978;DHT22;3015;51.390;12.256;2022-11-28T05:13:54;4.00;1.00
5978;DHT22;3015;51.390;12.256;2022-11-28T05:16:20;4.10;99.90
5978;DHT22;3015;51.390;12.256;2022-11-28T05:18:46;4.20;99.90
5978;DHT22;3015;51.390;12.256;2022-11-28T05:21:11;4.10;99.90
5978;DHT22;3015;51.390;12.256;2022-11-28T05:23:39;4.10;99.90
5978;DHT22;3015;51.390;12.256;2022-11-28T05:26:16;4.00;99.90
5978;DHT22;3015;51.390;12.256;2022-11-28T05:28:47;3.90;99.90
5978;DHT22;3015;51.390;12.256;2022-11-28T05:31:14;3.70;99.90
5978;DHT22;3015;51.390;12.256;2022-11-28T05:33:39;3.80;1.00
5978;DHT22;3015;51.390;12.256;2022-11-28T05:36:08;3.70;1.00
5978;DHT22;3015;51.390;12.256;2022-11-28T05:38:34;3.60;1.00
5978;DHT22;3015;51.390;12.256;2022-11-28T05:41:00;3.50;76.10
5978;DHT22;3015;51.390;12.256;2022-11-28T05:43:26;3.50;99.90
5978;DHT22;3015;51.390;12.256;2022-11-28T05:45:52;3.40;99.90
5978;DHT22;3015;51.390;12.256;2022-11-28T05:48:18;3.40;1.00
5978;DHT22;3015;51.390;12.256;2022-11-28T05:50:43;3.60;1.00
5978;DHT22;3015;51.390;12.256;2022-11-28T05:53:09;3.60;99.90
5978;DHT22;3015;51.390;12.256;2022-11-28T05:55:38;3.50;1.00
5978;DHT22;3015;51.390;12.256;2022-11-28T05:58:04;3.50;1.00
5978;DHT22;3015;51.390;12.256;2022-11-28T06:00:30;3.60;42.10
5978;DHT22;3015;51.390;12.256;2022-11-28T06:02:56;3.60;3.20
5978;DHT22;3015;51.390;12.256;2022-11-28T06:05:23;3.60;1.00
5978;DHT22;3015;51.390;12.256;2022-11-28T06:07:48;3.60;1.00
5978;DHT22;3015;51.390;12.256;2022-11-28T06:10:14;3.50;1.00
5978;DHT22;3015;51.390;12.256;2022-11-28T06:12:40;3.50;49.20
5978;DHT22;3015;51.390;12.256;2022-11-28T06:15:06;3.40;99.90
5978;DHT22;3015;51.390;12.256;2022-11-28T06:17:32;3.40;99.90
5978;DHT22;3015;51.390;12.256;2022-11-28T06:19:57;3.40;99.90
5978;DHT22;3015;51.390;12.256;2022-11-28T06:22:23;3.40;1.00
5978;DHT22;3015;51.390;12.256;2022-11-28T06:24:49;3.40;1.00
5978;DHT22;3015;51.390;12.256;2022-11-28T06:27:14;3.50;1.00
5978;DHT22;3015;51.390;12.256;2022-11-28T06:29:40;3.40;99.90
5978;DHT22;3015;51.390;12.256;2022-11-28T06:32:06;3.40;1.00
5978;DHT22;3015;51.390;12.256;2022-11-28T06:34:31;3.40;99.90
5978;DHT22;3015;51.390;12.256;2022-11-28T06:36:57;3.50;93.50
5978;DHT22;3015;51.390;12.256;2022-11-28T06:39:23;3.50;1.00
5978;DHT22;3015;51.390;12.256;2022-11-28T06:41:48;3.60;1.00
5978;DHT22;3015;51.390;12.256;2022-11-28T06:44:15;3.50;99.90
5978;DHT22;3015;51.390;12.256;2022-11-28T06:46:42;3.40;99.90
5978;DHT22;3015;51.390;12.256;2022-11-28T06:49:12;3.40;1.00
5978;DHT22;3015;51.390;12.256;2022-11-28T06:51:38;3.40;1.00
5978;DHT22;3015;51.390;12.256;2022-11-28T06:54:04;3.40;1.00
5978;DHT22;3015;51.390;12.256;2022-11-28T06:56:30;3.40;1.00
5978;DHT22;3015;51.390;12.256;2022-11-28T06:58:57;3.40;1.00
5978;DHT22;3015;51.390;12.256;2022-11-28T07:01:27;3.40;99.90
5978;DHT22;3015;51.390;12.256;2022-11-28T07:03:52;3.30;89.10
5978;DHT22;3015;51.390;12.256;2022-11-28T07:06:23;3.40;99.90
5978;DHT22;3015;51.390;12.256;2022-11-28T07:08:49;3.40;99.90
5978;DHT22;3015;51.390;12.256;2022-11-28T07:11:20;3.40;23.70
5978;DHT22;3015;51.390;12.256;2022-11-28T07:13:47;3.40;60.30
5978;DHT22;3015;51.390;12.256;2022-11-28T07:16:16;3.60;99.90
5978;DHT22;3015;51.390;12.256;2022-11-28T07:18:42;3.70;1.00
5978;DHT22;3015;51.390;12.256;2022-11-28T07:21:08;3.80;99.90
5978;DHT22;3015;51.390;12.256;2022-11-28T07:23:34;3.90;21.30
5978;DHT22;3015;51.390;12.256;2022-11-28T07:26:01;3.90;1.00
5978;DHT22;3015;51.390;12.256;2022-11-28T07:28:28;3.90;1.00
5978;DHT22;3015;51.390;12.256;2022-11-28T07:31:03;4.00;1.00
5978;DHT22;3015;51.390;12.256;2022-11-28T07:33:29;4.10;1.00
5978;DHT22;3015;51.390;12.256;2022-11-28T07:35:59;4.20;99.90
5978;DHT22;3015;51.390;12.256;2022-11-28T07:38:25;4.20;99.90
5978;DHT22;3015;51.390;12.256;2022-11-28T07:40:50;4.30;14.60
5978;DHT22;3015;51.390;12.256;2022-11-28T07:43:16;4.40;1.00
5978;DHT22;3015;51.390;12.256;2022-11-28T07:45:41;4.50;1.00
5978;DHT22;3015;51.390;12.256;2022-11-28T07:48:07;4.50;99.90
5978;DHT22;3015;51.390;12.256;2022-11-28T07:50:36;4.60;99.90
5978;DHT22;3015;51.390;12.256;2022-11-28T07:53:02;4.60;99.90
5978;DHT22;3015;51.390;12.256;2022-11-28T07:55:27;4.70;99.90
5978;DHT22;3015;51.390;12.256;2022-11-28T07:57:53;4.80;99.90
5978;DHT22;3015;51.390;12.256;2022-11-28T08:00:19;4.80;99.90
5978;DHT22;3015;51.390;12.256;2022-11-28T08:02:45;4.90;55.20
5978;DHT22;3015;51.390;12.256;2022-11-28T08:05:11;5.00;15.40
5978;DHT22;3015;51.390;12.256;2022-11-28T08:07:37;5.10;1.00
5978;DHT22;3015;51.390;12.256;2022-11-28T08:10:05;5.10;1.00
5978;DHT22;3015;51.390;12.256;2022-11-28T08:12:31;5.20;1.00
5978;DHT22;3015;51.390;12.256;2022-11-28T08:14:56;5.10;1.00
5978;DHT22;3015;51.390;12.256;2022-11-28T08:17:22;5.20;1.00
5978;DHT22;3015;51.390;12.256;2022-11-28T08:19:48;5.30;1.00
5978;DHT22;3015;51.390;12.256;2022-11-28T08:22:14;5.30;1.00
5978;DHT22;3015;51.390;12.256;2022-11-28T08:24:39;5.30;1.00
5978;DHT22;3015;51.390;12.256;2022-11-28T08:27:05;5.30;1.00
5978;DHT22;3015;51.390;12.256;2022-11-28T08:29:30;5.40;1.00
5978;DHT22;3015;51.390;12.256;2022-11-28T08:31:56;5.40;1.00
5978;DHT22;3015;51.390;12.256;2022-11-28T08:34:21;5.40;1.00
5978;DHT22;3015;51.390;12.256;2022-11-28T08:36:47;5.40;1.00
5978;DHT22;3015;51.390;12.256;2022-11-28T08:39:13;5.50;1.00
5978;DHT22;3015;51.390;12.256;2022-11-28T08:41:39;5.50;1.00
5978;DHT22;3015;51.390;12.256;2022-11-28T08:44:04;5.50;1.00
5978;DHT22;3015;51.390;12.256;2022-11-28T08:46:30;5.50;1.00
5978;DHT22;3015;51.390;12.256;2022-11-28T08:48:58;5.60;1.00
5978;DHT22;3015;51.390;12.256;2022-11-28T08:51:25;5.70;1.00
5978;DHT22;3015;51.390;12.256;2022-11-28T08:53:51;5.70;1.00
5978;DHT22;3015;51.390;12.256;2022-11-28T08:56:17;5.80;1.00
5978;DHT22;3015;51.390;12.256;2022-11-28T08:58:43;5.90;1.00
5978;DHT22;3015;51.390;12.256;2022-11-28T09:01:16;5.90;1.00
5978;DHT22;3015;51.390;12.256;2022-11-28T09:03:42;5.90;1.00
5978;DHT22;3015;51.390;12.256;2022-11-28T09:06:08;6.10;1.00
5978;DHT22;3015;51.390;12.256;2022-11-28T09:08:34;6.20;1.00
5978;DHT22;3015;51.390;12.256;2022-11-28T09:10:59;6.20;1.00
5978;DHT22;3015;51.390;12.256;2022-11-28T09:13:25;6.20;1.00
5978;DHT22;3015;51.390;12.256;2022-11-28T09:15:50;6.30;1.00
5978;DHT22;3015;51.390;12.256;2022-11-28T09:18:16;6.30;1.00
5978;DHT22;3015;51.390;12.256;2022-11-28T09:20:42;6.50;1.00
5978;DHT22;3015;51.390;12.256;2022-11-28T09:23:08;6.70;1.00
5978;DHT22;3015;51.390;12.256;2022-11-28T09:25:36;6.80;99.90
5978;DHT22;3015;51.390;12.256;2022-11-28T09:28:01;7.00;99.90
5978;DHT22;3015;51.390;12.256;2022-11-28T09:30:27;7.10;99.90
5978;DHT22;3015;51.390;12.256;2022-11-28T09:32:53;7.30;99.90
5978;DHT22;3015;51.390;12.256;2022-11-28T09:35:19;7.20;99.90
5978;DHT22;3015;51.390;12.256;2022-11-28T09:37:45;7.20;99.90
5978;DHT22;3015;51.390;12.256;2022-11-28T09:40:35;7.20;99.90
5978;DHT22;3015;51.390;12.256;2022-11-28T09:43:02;7.20;99.90
5978;DHT22;3015;51.390;12.256;2022-11-28T09:45:29;7.20;99.90
5978;DHT22;3015;51.390;12.256;2022-11-28T09:48:01;7.20;99.90
5978;DHT22;3015;51.390;12.256;2022-11-28T09:50:33;7.10;99.90
5978;DHT22;3015;51.390;12.256;2022-11-28T10:04:20;7.00;99.90
5978;DHT22;3015;51.390;12.256;2022-11-28T10:14:43;7.00;99.90
5978;DHT22;3015;51.390;12.256;2022-11-28T10:19:49;7.30;99.90
5978;DHT22;3015;51.390;12.256;2022-11-28T10:22:19;7.40;99.90
5978;DHT22;3015;51.390;12.256;2022-11-28T10:24:53;7.40;99.90
5978;DHT22;3015;51.390;12.256;2022-11-28T10:27:24;7.50;99.90
5978;DHT22;3015;51.390;12.256;2022-11-28T10:30:02;7.60;99.90
5978;DHT22;3015;51.390;12.256;2022-11-28T10:32:37;7.70;99.90
5978;DHT22;3015;51.390;12.256;2022-11-28T10:37:51;7.80;99.90
5978;DHT22;3015;51.390;12.256;2022-11-28T10:40:35;7.90;99.90
5978;DHT22;3015;51.390;12.256;2022-11-28T10:57:30;7.90;99.90
5978;DHT22;3015;51.390;12.256;2022-11-28T11:00:12;7.90;99.90
5978;DHT22;3015;51.390;12.256;2022-11-28T11:02:48;7.90;99.90
5978;DHT22;3015;51.390;12.256;2022-11-28T11:05:26;7.90;99.90
5978;DHT22;3015;51.390;12.256;2022-11-28T11:10:32;7.90;99.90
5978;DHT22;3015;51.390;12.256;2022-11-28T11:13:17;7.90;99.90
5978;DHT22;3015;51.390;12.256;2022-11-28T11:15:44;7.90;99.90
5978;DHT22;3015;51.390;12.256;2022-11-28T11:23:47;7.90;99.90
5978;DHT22;3015;51.390;12.256;2022-11-28T11:26:25;7.80;99.90
5978;DHT22;3015;51.390;12.256;2022-11-28T11:28:52;7.80;99.90
5978;DHT22;3015;51.390;12.256;2022-11-28T11:31:20;7.80;99.90
5978;DHT22;3015;51.390;12.256;2022-11-28T11:34:03;7.80;99.90
5978;DHT22;3015;51.390;12.256;2022-11-28T11:36:34;7.90;99.90
5978;DHT22;3015;51.390;12.256;2022-11-28T11:41:43;7.70;99.90
5978;DHT22;3015;51.390;12.256;2022-11-28T11:46:58;7.70;99.90
5978;DHT22;3015;51.390;12.256;2022-11-28T11:51:56;7.70;99.90
5978;DHT22;3015;51.390;12.256;2022-11-28T11:54:22;7.70;99.90
5978;DHT22;3015;51.390;12.256;2022-11-28T11:56:49;7.70;99.90
5978;DHT22;3015;51.390;12.256;2022-11-28T11:59:20;7.70;99.90
5978;DHT22;3015;51.390;12.256;2022-11-28T12:01:56;7.70;99.90
5978;DHT22;3015;51.390;12.256;2022-11-28T12:04:32;7.70;99.90
5978;DHT22;3015;51.390;12.256;2022-11-28T12:07:04;7.70;99.90
5978;DHT22;3015;51.390;12.256;2022-11-28T12:09:42;7.70;99.90
5978;DHT22;3015;51.390;12.256;2022-11-28T12:12:11;7.70;99.90
5978;DHT22;3015;51.390;12.256;2022-11-28T12:14:38;7.70;99.90
5978;DHT22;3015;51.390;12.256;2022-11-28T12:20:02;7.70;99.90
5978;DHT22;3015;51.390;12.256;2022-11-28T12:36:26;7.80;99.90
5978;DHT22;3015;51.390;12.256;2022-11-28T12:39:12;7.90;99.90
5978;DHT22;3015;51.390;12.256;2022-11-28T12:41:59;7.90;99.90
5978;DHT22;3015;51.390;12.256;2022-11-28T12:50:29;7.80;99.90
5978;DHT22;3015;51.390;12.256;2022-11-28T12:56:23;7.80;99.90
5978;DHT22;3015;51.390;12.256;2022-11-28T12:59:07;7.80;99.90
5978;DHT22;3015;51.390;12.256;2022-11-28T13:10:28;7.90;99.90
5978;DHT22;3015;51.390;12.256;2022-11-28T13:22:08;7.90;99.90
5978;DHT22;3015;51.390;12.256;2022-11-28T13:30:25;7.80;99.90
5978;DHT22;3015;51.390;12.256;2022-11-28T13:33:11;7.80;99.90
5978;DHT22;3015;51.390;12.256;2022-11-28T13:35:44;7.70;99.90
5978;DHT22;3015;51.390;12.256;2022-11-28T13:38:12;7.70;99.90
5978;DHT22;3015;51.390;12.256;2022-11-28T13:40:41;7.80;99.90
5978;DHT22;3015;51.390;12.256;2022-11-28T13:43:16;7.80;99.90
5978;DHT22;3015;51.390;12.256;2022-11-28T13:45:46;7.70;99.90
5978;DHT22;3015;51.390;12.256;2022-11-28T13:51:14;7.60;99.90
5978;DHT22;3015;51.390;12.256;2022-11-28T13:53:42;7.50;99.90
5978;DHT22;3015;51.390;12.256;2022-11-28T13:58:57;7.50;99.90
5978;DHT22;3015;51.390;12.256;2022-11-28T14:01:26;7.50;99.90
5978;DHT22;3015;51.390;12.256;2022-11-28T14:25:49;7.30;99.90
5978;DHT22;3015;51.390;12.256;2022-11-28T14:30:47;7.10;99.90
5978;DHT22;3015;51.390;12.256;2022-11-28T14:33:23;7.00;99.90
5978;DHT22;3015;51.390;12.256;2022-11-28T14:43:25;6.80;99.90
5978;DHT22;3015;51.390;12.256;2022-11-28T14:46:15;6.80;99.90
5978;DHT22;3015;51.390;12.256;2022-11-28T14:48:38;6.80;99.90
5978;DHT22;3015;51.390;12.256;2022-11-28T14:51:06;6.70;99.90
5978;DHT22;3015;51.390;12.256;2022-11-28T14:53:43;6.60;99.90
5978;DHT22;3015;51.390;12.256;2022-11-28T14:58:47;6.70;99.90
5978;DHT22;3015;51.390;12.256;2022-11-28T15:01:34;6.60;99.90
5978;DHT22;3015;51.390;12.256;2022-11-28T15:06:53;6.50;99.90
5978;DHT22;3015;51.390;12.256;2022-11-28T15:09:37;6.50;99.90
5978;DHT22;3015;51.390;12.256;2022-11-28T15:12:27;6.50;99.90
5978;DHT22;3015;51.390;12.256;2022-11-28T15:14:57;6.50;99.90
5978;DHT22;3015;51.390;12.256;2022-11-28T15:17:28;6.50;99.90
5978;DHT22;3015;51.390;12.256;2022-11-28T15:19:56;6.40;99.90
5978;DHT22;3015;51.390;12.256;2022-11-28T15:22:41;6.40;99.90
5978;DHT22;3015;51.390;12.256;2022-11-28T15:25:24;6.40;99.90
5978;DHT22;3015;51.390;12.256;2022-11-28T15:27:51;6.30;99.90
5978;DHT22;3015;51.390;12.256;2022-11-28T15:30:26;6.30;99.90
5978;DHT22;3015;51.390;12.256;2022-11-28T15:32:57;6.30;99.90
5978;DHT22;3015;51.390;12.256;2022-11-28T15:35:24;6.40;99.90
5978;DHT22;3015;51.390;12.256;2022-11-28T15:37:52;6.30;99.90
5978;DHT22;3015;51.390;12.256;2022-11-28T15:40:22;6.30;99.90
5978;DHT22;3015;51.390;12.256;2022-11-28T15:42:49;6.20;99.90
5978;DHT22;3015;51.390;12.256;2022-11-28T15:45:27;6.20;99.90
5978;DHT22;3015;51.390;12.256;2022-11-28T15:47:54;6.20;99.90
5978;DHT22;3015;51.390;12.256;2022-11-28T15:50:32;6.20;99.90
5978;DHT22;3015;51.390;12.256;2022-11-28T15:53:03;6.20;99.90
5978;DHT22;3015;51.390;12.256;2022-11-28T15:55:31;6.20;99.90
5978;DHT22;3015;51.390;12.256;2022-11-28T15:58:22;6.30;99.90
5978;DHT22;3015;51.390;12.256;2022-11-28T16:03:23;6.30;99.90
5978;DHT22;3015;51.390;12.256;2022-11-28T16:05:51;6.40;99.90
5978;DHT22;3015;51.390;12.256;2022-11-28T16:08:40;6.40;99.90
5978;DHT22;3015;51.390;12.256;2022-11-28T16:11:14;6.40;99.90
5978;DHT22;3015;51.390;12.256;2022-11-28T16:13:41;6.40;99.90
5978;DHT22;3015;51.390;12.256;2022-11-28T16:16:16;6.40;99.90
5978;DHT22;3015;51.390;12.256;2022-11-28T16:18:45;6.30;99.90
5978;DHT22;3015;51.390;12.256;2022-11-28T16:21:13;6.30;99.90
5978;DHT22;3015;51.390;12.256;2022-11-28T16:23:39;6.30;99.90
5978;DHT22;3015;51.390;12.256;2022-11-28T16:26:34;6.20;99.90
5978;DHT22;3015;51.390;12.256;2022-11-28T16:31:32;6.20;99.90
5978;DHT22;3015;51.390;12.256;2022-11-28T16:33:59;6.20;99.90
5978;DHT22;3015;51.390;12.256;2022-11-28T16:36:30;6.40;99.90
5978;DHT22;3015;51.390;12.256;2022-11-28T16:41:34;6.20;99.90
5978;DHT22;3015;51.390;12.256;2022-11-28T16:44:13;6.40;99.90
5978;DHT22;3015;51.390;12.256;2022-11-28T16:46:47;6.40;99.90
5978;DHT22;3015;51.390;12.256;2022-11-28T16:49:41;6.30;99.90
5978;DHT22;3015;51.390;12.256;2022-11-28T16:54:52;6.50;99.90
5978;DHT22;3015;51.390;12.256;2022-11-28T16:57:19;6.40;99.90
5978;DHT22;3015;51.390;12.256;2022-11-28T16:59:46;6.40;99.90
5978;DHT22;3015;51.390;12.256;2022-11-28T17:02:17;6.50;99.90
5978;DHT22;3015;51.390;12.256;2022-11-28T17:04:45;6.40;99.90
5978;DHT22;3015;51.390;12.256;2022-11-28T17:07:13;6.40;99.90
5978;DHT22;3015;51.390;12.256;2022-11-28T17:09:40;6.40;99.90
5978;DHT22;3015;51.390;12.256;2022-11-28T17:14:48;6.20;99.90
5978;DHT22;3015;51.390;12.256;2022-11-28T17:17:14;6.10;99.90
5978;DHT22;3015;51.390;12.256;2022-11-28T17:19:41;6.10;99.90
5978;DHT22;3015;51.390;12.256;2022-11-28T17:22:09;6.10;99.90
5978;DHT22;3015;51.390;12.256;2022-11-28T17:24:36;6.20;99.90
5978;DHT22;3015;51.390;12.256;2022-11-28T17:27:02;6.20;99.90
5978;DHT22;3015;51.390;12.256;2022-11-28T17:29:28;6.20;99.90
5978;DHT22;3015;51.390;12.256;2022-11-28T17:31:54;6.10;99.90
5978;DHT22;3015;51.390;12.256;2022-11-28T17:34:24;6.20;99.90
5978;DHT22;3015;51.390;12.256;2022-11-28T17:36:50;6.10;99.90
5978;DHT22;3015;51.390;12.256;2022-11-28T17:39:17;6.10;99.90
5978;DHT22;3015;51.390;12.256;2022-11-28T17:41:44;6.10;99.90
5978;DHT22;3015;51.390;12.256;2022-11-28T17:44:19;6.20;99.90
5978;DHT22;3015;51.390;12.256;2022-11-28T17:46:46;6.10;99.90
5978;DHT22;3015;51.390;12.256;2022-11-28T17:49:12;6.10;99.90
5978;DHT22;3015;51.390;12.256;2022-11-28T17:51:38;6.00;99.90
5978;DHT22;3015;51.390;12.256;2022-11-28T17:54:04;6.10;99.90
5978;DHT22;3015;51.390;12.256;2022-11-28T17:56:30;6.10;99.90
5978;DHT22;3015;51.390;12.256;2022-11-28T17:58:57;6.20;99.90
5978;DHT22;3015;51.390;12.256;2022-11-28T18:01:26;6.20;99.90
5978;DHT22;3015;51.390;12.256;2022-11-28T18:03:52;6.10;99.90
5978;DHT22;3015;51.390;12.256;2022-11-28T18:06:19;6.10;99.90
5978;DHT22;3015;51.390;12.256;2022-11-28T18:08:47;6.20;99.90
5978;DHT22;3015;51.390;12.256;2022-11-28T18:11:13;6.20;99.90
5978;DHT22;3015;51.390;12.256;2022-11-28T18:13:40;6.20;99.90
5978;DHT22;3015;51.390;12.256;2022-11-28T18:16:11;6.20;99.90
5978;DHT22;3015;51.390;12.256;2022-11-28T18:18:37;6.10;99.90
5978;DHT22;3015;51.390;12.256;2022-11-28T18:21:05;6.00;99.90
5978;DHT22;3015;51.390;12.256;2022-11-28T18:23:31;6.00;99.90
5978;DHT22;3015;51.390;12.256;2022-11-28T18:25:57;6.10;99.90
5978;DHT22;3015;51.390;12.256;2022-11-28T18:28:23;6.00;99.90
5978;DHT22;3015;51.390;12.256;2022-11-28T18:30:48;6.00;99.90
5978;DHT22;3015;51.390;12.256;2022-11-28T18:33:15;5.90;99.90
5978;DHT22;3015;51.390;12.256;2022-11-28T18:35:41;5.90;99.90
5978;DHT22;3015;51.390;12.256;2022-11-28T18:38:07;6.00;99.90
5978;DHT22;3015;51.390;12.256;2022-11-28T18:40:35;5.90;99.90
5978;DHT22;3015;51.390;12.256;2022-11-28T18:43:02;6.00;99.90
5978;DHT22;3015;51.390;12.256;2022-11-28T18:45:28;6.00;99.90
5978;DHT22;3015;51.390;12.256;2022-11-28T18:47:53;6.00;99.90
5978;DHT22;3015;51.390;12.256;2022-11-28T18:50:19;5.90;99.90
5978;DHT22;3015;51.390;12.256;2022-11-28T18:52:45;5.80;99.90
5978;DHT22;3015;51.390;12.256;2022-11-28T18:55:10;5.80;99.90
5978;DHT22;3015;51.390;12.256;2022-11-28T18:57:36;5.80;99.90
5978;DHT22;3015;51.390;12.256;2022-11-28T19:00:03;5.80;99.90
5978;DHT22;3015;51.390;12.256;2022-11-28T19:02:29;5.80;99.90
5978;DHT22;3015;51.390;12.256;2022-11-28T19:04:55;5.80;99.90
5978;DHT22;3015;51.390;12.256;2022-11-28T19:07:21;5.70;99.90
5978;DHT22;3015;51.390;12.256;2022-11-28T19:09:47;5.70;99.90
5978;DHT22;3015;51.390;12.256;2022-11-28T19:12:13;5.70;99.90
5978;DHT22;3015;51.390;12.256;2022-11-28T19:14:39;5.70;99.90
5978;DHT22;3015;51.390;12.256;2022-11-28T19:17:04;5.70;99.90
5978;DHT22;3015;51.390;12.256;2022-11-28T19:19:32;5.60;99.90
5978;DHT22;3015;51.390;12.256;2022-11-28T19:21:57;5.70;99.90
5978;DHT22;3015;51.390;12.256;2022-11-28T19:24:23;5.80;99.90
5978;DHT22;3015;51.390;12.256;2022-11-28T19:26:49;5.80;99.90
5978;DHT22;3015;51.390;12.256;2022-11-28T19:29:15;5.80;99.90
5978;DHT22;3015;51.390;12.256;2022-11-28T19:31:42;5.80;99.90
5978;DHT22;3015;51.390;12.256;2022-11-28T19:34:13;5.80;99.90
5978;DHT22;3015;51.390;12.256;2022-11-28T19:36:41;5.80;99.90
5978;DHT22;3015;51.390;12.256;2022-11-28T19:39:18;5.70;99.90
5978;DHT22;3015;51.390;12.256;2022-11-28T19:41:45;5.70;99.90
5978;DHT22;3015;51.390;12.256;2022-11-28T19:44:12;5.60;99.90
5978;DHT22;3015;51.390;12.256;2022-11-28T19:46:38;5.70;99.90
5978;DHT22;3015;51.390;12.256;2022-11-28T19:49:05;5.70;99.90
5978;DHT22;3015;51.390;12.256;2022-11-28T19:51:31;5.70;99.90
5978;DHT22;3015;51.390;12.256;2022-11-28T19:53:58;5.60;99.90
5978;DHT22;3015;51.390;12.256;2022-11-28T19:56:24;5.60;99.90
5978;DHT22;3015;51.390;12.256;2022-11-28T19:58:50;5.60;99.90
5978;DHT22;3015;51.390;12.256;2022-11-28T20:01:20;5.80;99.90
5978;DHT22;3015;51.390;12.256;2022-11-28T20:03:47;5.80;99.90